sensor_id;sensor_type;location;lat;lon;timestamp;pressure;altitude;pressure_sealevel;temperature;humidity
79028;BME280;68427;48.476;19.102;2023-10-19T00:00:31;97115.06;;;-0.21;85.61
79028;BME280;68427;48.476;19.102;2023-10-19T00:02:59;97117.63;;;-0.11;86.12
79028;BME280;68427;48.476;19.102;2023-10-19T00:05:28;97111.91;;;-0.05;86.08
79028;BME280;68427;48.476;19.102;2023-10-19T00:07:55;97109.34;;;0.05;86.25
79028;BME280;68427;48.476;19.102;2023-10-19T00:10:24;97120.88;;;0.10;87.10
79028;BME280;68427;48.476;19.102;2023-10-19T00:12:55;97119.78;;;0.13;86.04
79028;BME280;68427;48.476;19.102;2023-10-19T00:15:30;97117.84;;;0.15;87.06
79028;BME280;68427;48.476;19.102;2023-10-19T00:17:58;97117.72;;;0.16;86.70
79028;BME280;68427;48.476;19.102;2023-10-19T00:20:31;97112.56;;;0.16;86.10
79028;BME280;68427;48.476;19.102;2023-10-19T00:23:23;97115.03;;;0.18;85.71
79028;BME280;68427;48.476;19.102;2023-10-19T00:26:02;97107.53;;;0.25;85.15
79028;BME280;68427;48.476;19.102;2023-10-19T00:28:41;97104.25;;;0.32;85.35
79028;BME280;68427;48.476;19.102;2023-10-19T00:31:07;97106.41;;;0.37;86.29
79028;BME280;68427;48.476;19.102;2023-10-19T00:33:37;97098.28;;;0.41;86.47
79028;BME280;68427;48.476;19.102;2023-10-19T00:36:04;97092.03;;;0.44;85.71
79028;BME280;68427;48.476;19.102;2023-10-19T00:38:33;97093.22;;;0.50;86.45
79028;BME280;68427;48.476;19.102;2023-10-19T00:41:00;97093.91;;;0.52;85.60
79028;BME280;68427;48.476;19.102;2023-10-19T00:43:36;97088.03;;;0.59;86.57
79028;BME280;68427;48.476;19.102;2023-10-19T00:46:12;97087.59;;;0.64;86.16
79028;BME280;68427;48.476;19.102;2023-10-19T00:48:45;97093.28;;;0.68;86.61
79028;BME280;68427;48.476;19.102;2023-10-19T00:51:14;97080.38;;;0.68;86.69
79028;BME280;68427;48.476;19.102;2023-10-19T00:53:57;97084.31;;;0.72;86.96
79028;BME280;68427;48.476;19.102;2023-10-19T00:56:26;97073.88;;;0.73;86.82
79028;BME280;68427;48.476;19.102;2023-10-19T00:58:57;97075.06;;;0.79;86.74
79028;BME280;68427;48.476;19.102;2023-10-19T01:01:29;97064.31;;;0.83;85.74
79028;BME280;68427;48.476;19.102;2023-10-19T01:03:55;97062.94;;;0.89;87.09
79028;BME280;68427;48.476;19.102;2023-10-19T01:06:24;97062.94;;;0.89;87.41
79028;BME280;68427;48.476;19.102;2023-10-19T01:08:50;97065.06;;;0.94;87.28
79028;BME280;68427;48.476;19.102;2023-10-19T01:11:17;97066.56;;;0.96;88.08
79028;BME280;68427;48.476;19.102;2023-10-19T01:13:47;97059.06;;;1.03;88.05
79028;BME280;68427;48.476;19.102;2023-10-19T01:16:14;97038.25;;;1.04;86.97
79028;BME280;68427;48.476;19.102;2023-10-19T01:18:50;97053.81;;;1.13;88.43
79028;BME280;68427;48.476;19.102;2023-10-19T01:21:21;97040.47;;;1.17;86.94
79028;BME280;68427;48.476;19.102;2023-10-19T01:23:48;97031.19;;;1.24;87.19
79028;BME280;68427;48.476;19.102;2023-10-19T01:26:14;97045.44;;;1.28;87.42
79028;BME280;68427;48.476;19.102;2023-10-19T01:28:47;97024.34;;;1.33;88.69
79028;BME280;68427;48.476;19.102;2023-10-19T01:31:14;97030.53;;;1.40;88.14
79028;BME280;68427;48.476;19.102;2023-10-19T01:33:42;97032.66;;;1.45;88.03
79028;BME280;68427;48.476;19.102;2023-10-19T01:36:08;97027.84;;;1.50;87.74
79028;BME280;68427;48.476;19.102;2023-10-19T01:38:37;97033.09;;;1.58;87.38
79028;BME280;68427;48.476;19.102;2023-10-19T01:41:06;97019.91;;;1.61;86.95
79028;BME280;68427;48.476;19.102;2023-10-19T01:43:46;97008.59;;;1.62;87.01
79028;BME280;68427;48.476;19.102;2023-10-19T01:46:13;97011.53;;;1.67;87.33
79028;BME280;68427;48.476;19.102;2023-10-19T01:48:48;97009.47;;;1.71;87.22
79028;BME280;68427;48.476;19.102;2023-10-19T01:51:15;97017.06;;;1.72;87.23
79028;BME280;68427;48.476;19.102;2023-10-19T01:53:42;96999.16;;;1.71;88.24
79028;BME280;68427;48.476;19.102;2023-10-19T01:56:12;97011.31;;;1.79;87.35
79028;BME280;68427;48.476;19.102;2023-10-19T01:58:40;96996.63;;;1.79;88.60
79028;BME280;68427;48.476;19.102;2023-10-19T02:01:07;96989.88;;;1.86;88.53
79028;BME280;68427;48.476;19.102;2023-10-19T02:03:39;96987.31;;;1.86;88.15
79028;BME280;68427;48.476;19.102;2023-10-19T02:06:08;96981.16;;;1.87;88.72
79028;BME280;68427;48.476;19.102;2023-10-19T02:08:45;96984.41;;;1.89;88.47
79028;BME280;68427;48.476;19.102;2023-10-19T02:11:14;96976.69;;;1.98;88.26
79028;BME280;68427;48.476;19.102;2023-10-19T02:13:44;96965.91;;;2.02;88.52
79028;BME280;68427;48.476;19.102;2023-10-19T02:16:12;96977.56;;;2.06;88.60
79028;BME280;68427;48.476;19.102;2023-10-19T02:18:40;96969.97;;;2.05;89.21
79028;BME280;68427;48.476;19.102;2023-10-19T02:21:06;96964.19;;;2.11;89.02
79028;BME280;68427;48.476;19.102;2023-10-19T02:23:32;96966.59;;;2.12;89.86
79028;BME280;68427;48.476;19.102;2023-10-19T02:26:01;96952.56;;;2.15;88.94
79028;BME280;68427;48.476;19.102;2023-10-19T02:28:31;96948.72;;;2.19;89.43
79028;BME280;68427;48.476;19.102;2023-10-19T02:30:58;96943.91;;;2.24;89.13
79028;BME280;68427;48.476;19.102;2023-10-19T02:33:36;96943.59;;;2.27;89.99
79028;BME280;68427;48.476;19.102;2023-10-19T02:36:02;96929.72;;;2.28;89.27
79028;BME280;68427;48.476;19.102;2023-10-19T02:38:29;96951.66;;;2.32;89.61
79028;BME280;68427;48.476;19.102;2023-10-19T02:40:55;96939.41;;;2.34;89.72
79028;BME280;68427;48.476;19.102;2023-10-19T02:43:21;96940.72;;;2.38;89.95
79028;BME280;68427;48.476;19.102;2023-10-19T02:45:50;96926.03;;;2.39;90.59
79028;BME280;68427;48.476;19.102;2023-10-19T02:48:16;96930.06;;;2.42;90.47
79028;BME280;68427;48.476;19.102;2023-10-19T02:50:42;96916.97;;;2.43;90.24
79028;BME280;68427;48.476;19.102;2023-10-19T02:53:08;96918.75;;;2.43;90.58
79028;BME280;68427;48.476;19.102;2023-10-19T02:55:38;96911.97;;;2.42;90.54
79028;BME280;68427;48.476;19.102;2023-10-19T02:58:05;96908.75;;;2.48;90.45
79028;BME280;68427;48.476;19.102;2023-10-19T03:00:31;96904.25;;;2.50;90.81
79028;BME280;68427;48.476;19.102;2023-10-19T03:03:01;96903.09;;;2.52;90.76
79028;BME280;68427;48.476;19.102;2023-10-19T03:05:27;96888.09;;;2.56;90.83
79028;BME280;68427;48.476;19.102;2023-10-19T03:07:53;96894.72;;;2.58;90.99
79028;BME280;68427;48.476;19.102;2023-10-19T03:10:19;96891.97;;;2.60;91.24
79028;BME280;68427;48.476;19.102;2023-10-19T03:13:07;96893.75;;;2.59;91.33
79028;BME280;68427;48.476;19.102;2023-10-19T03:15:33;96890.84;;;2.63;92.13
79028;BME280;68427;48.476;19.102;2023-10-19T03:18:00;96890.69;;;2.64;91.92
79028;BME280;68427;48.476;19.102;2023-10-19T03:20:27;96887.78;;;2.67;91.25
79028;BME280;68427;48.476;19.102;2023-10-19T03:22:53;96871.28;;;2.68;91.58
79028;BME280;68427;48.476;19.102;2023-10-19T03:25:18;96874.72;;;2.69;92.28
79028;BME280;68427;48.476;19.102;2023-10-19T03:28:03;96866.13;;;2.68;92.14
79028;BME280;68427;48.476;19.102;2023-10-19T03:30:36;96860.81;;;2.70;91.85
79028;BME280;68427;48.476;19.102;2023-10-19T03:33:05;96860.00;;;2.69;91.94
79028;BME280;68427;48.476;19.102;2023-10-19T03:35:35;96848.69;;;2.70;92.21
79028;BME280;68427;48.476;19.102;2023-10-19T03:38:01;96854.50;;;2.72;92.72
79028;BME280;68427;48.476;19.102;2023-10-19T03:40:33;96853.84;;;2.70;93.00
79028;BME280;68427;48.476;19.102;2023-10-19T03:43:00;96848.53;;;2.72;92.98
79028;BME280;68427;48.476;19.102;2023-10-19T03:45:31;96837.84;;;2.75;92.65
79028;BME280;68427;48.476;19.102;2023-10-19T03:48:06;96838.66;;;2.75;92.75
79028;BME280;68427;48.476;19.102;2023-10-19T03:50:33;96833.66;;;2.74;93.80
79028;BME280;68427;48.476;19.102;2023-10-19T03:53:01;96829.16;;;2.76;93.87
79028;BME280;68427;48.476;19.102;2023-10-19T03:55:29;96839.31;;;2.77;93.96
79028;BME280;68427;48.476;19.102;2023-10-19T03:57:55;96833.00;;;2.80;93.89
79028;BME280;68427;48.476;19.102;2023-10-19T04:00:21;96825.91;;;2.82;93.95
79028;BME280;68427;48.476;19.102;2023-10-19T04:02:50;96824.63;;;2.86;94.08
79028;BME280;68427;48.476;19.102;2023-10-19T04:05:22;96825.41;;;2.87;94.40
79028;BME280;68427;48.476;19.102;2023-10-19T04:07:48;96822.66;;;2.88;94.37
79028;BME280;68427;48.476;19.102;2023-10-19T04:10:20;96828.47;;;2.90;94.15
79028;BME280;68427;48.476;19.102;2023-10-19T04:13:01;96818.78;;;2.92;94.13
79028;BME280;68427;48.476;19.102;2023-10-19T04:15:28;96821.81;;;2.96;93.92
79028;BME280;68427;48.476;19.102;2023-10-19T04:17:59;96815.72;;;2.97;94.16
79028;BME280;68427;48.476;19.102;2023-10-19T04:20:27;96805.69;;;2.94;94.45
79028;BME280;68427;48.476;19.102;2023-10-19T04:23:07;96804.06;;;2.93;94.71
79028;BME280;68427;48.476;19.102;2023-10-19T04:25:36;96794.84;;;2.90;95.27
79028;BME280;68427;48.476;19.102;2023-10-19T04:28:02;96785.16;;;2.92;95.01
79028;BME280;68427;48.476;19.102;2023-10-19T04:30:28;96788.38;;;2.94;95.18
79028;BME280;68427;48.476;19.102;2023-10-19T04:32:55;96782.41;;;2.94;95.50
79028;BME280;68427;48.476;19.102;2023-10-19T04:35:23;96785.47;;;2.97;95.27
79028;BME280;68427;48.476;19.102;2023-10-19T04:37:51;96789.34;;;3.01;96.38
79028;BME280;68427;48.476;19.102;2023-10-19T04:40:17;96782.25;;;3.03;96.51
79028;BME280;68427;48.476;19.102;2023-10-19T04:42:43;96787.88;;;3.07;95.73
79028;BME280;68427;48.476;19.102;2023-10-19T04:45:10;96782.38;;;3.10;96.01
79028;BME280;68427;48.476;19.102;2023-10-19T04:47:37;96778.81;;;3.11;95.54
79028;BME280;68427;48.476;19.102;2023-10-19T04:50:04;96782.84;;;3.14;96.01
79028;BME280;68427;48.476;19.102;2023-10-19T04:52:30;96777.50;;;3.15;96.02
79028;BME280;68427;48.476;19.102;2023-10-19T04:54:57;96775.56;;;3.17;96.15
79028;BME280;68427;48.476;19.102;2023-10-19T04:57:23;96764.22;;;3.18;96.14
79028;BME280;68427;48.476;19.102;2023-10-19T04:59:49;96761.47;;;3.20;96.86
79028;BME280;68427;48.476;19.102;2023-10-19T05:02:15;96769.72;;;3.23;96.76
79028;BME280;68427;48.476;19.102;2023-10-19T05:04:42;96761.34;;;3.21;97.26
79028;BME280;68427;48.476;19.102;2023-10-19T05:07:07;96753.88;;;3.27;96.85
79028;BME280;68427;48.476;19.102;2023-10-19T05:09:37;96746.75;;;3.29;97.05
79028;BME280;68427;48.476;19.102;2023-10-19T05:12:06;96753.53;;;3.30;96.40
79028;BME280;68427;48.476;19.102;2023-10-19T05:14:35;96754.97;;;3.32;96.92
79028;BME280;68427;48.476;19.102;2023-10-19T05:17:01;96748.66;;;3.35;97.18
79028;BME280;68427;48.476;19.102;2023-10-19T05:19:30;96742.34;;;3.37;97.43
79028;BME280;68427;48.476;19.102;2023-10-19T05:21:56;96746.38;;;3.40;97.33
79028;BME280;68427;48.476;19.102;2023-10-19T05:24:22;96746.22;;;3.41;97.22
79028;BME280;68427;48.476;19.102;2023-10-19T05:26:48;96742.50;;;3.44;97.17
79028;BME280;68427;48.476;19.102;2023-10-19T05:29:15;96738.75;;;3.46;96.65
79028;BME280;68427;48.476;19.102;2023-10-19T05:31:41;96733.22;;;3.50;96.47
79028;BME280;68427;48.476;19.102;2023-10-19T05:34:06;96743.59;;;3.50;96.99
79028;BME280;68427;48.476;19.102;2023-10-19T05:36:33;96736.28;;;3.53;96.49
79028;BME280;68427;48.476;19.102;2023-10-19T05:38:59;96732.53;;;3.56;96.82
79028;BME280;68427;48.476;19.102;2023-10-19T05:41:25;96731.75;;;3.55;96.89
79028;BME280;68427;48.476;19.102;2023-10-19T05:43:52;96734.97;;;3.57;96.79
79028;BME280;68427;48.476;19.102;2023-10-19T05:46:20;96736.88;;;3.63;96.82
79028;BME280;68427;48.476;19.102;2023-10-19T05:48:47;96731.38;;;3.66;96.52
79028;BME280;68427;48.476;19.102;2023-10-19T05:51:14;96731.03;;;3.70;96.93
79028;BME280;68427;48.476;19.102;2023-10-19T05:53:40;96736.22;;;3.70;96.91
79028;BME280;68427;48.476;19.102;2023-10-19T05:56:07;96723.59;;;3.66;97.25
79028;BME280;68427;48.476;19.102;2023-10-19T05:58:32;96734.41;;;3.70;96.88
79028;BME280;68427;48.476;19.102;2023-10-19T06:00:58;96730.22;;;3.69;97.10
79028;BME280;68427;48.476;19.102;2023-10-19T06:03:25;96732.47;;;3.72;97.92
79028;BME280;68427;48.476;19.102;2023-10-19T06:05:51;96742.34;;;3.68;97.91
79028;BME280;68427;48.476;19.102;2023-10-19T06:08:21;96748.50;;;3.67;97.81
79028;BME280;68427;48.476;19.102;2023-10-19T06:10:50;96754.97;;;3.72;97.88
79028;BME280;68427;48.476;19.102;2023-10-19T06:13:16;96751.41;;;3.73;98.22
79028;BME280;68427;48.476;19.102;2023-10-19T06:15:42;96742.31;;;3.77;98.73
79028;BME280;68427;48.476;19.102;2023-10-19T06:18:08;96741.00;;;3.81;98.52
79028;BME280;68427;48.476;19.102;2023-10-19T06:20:37;96738.09;;;3.84;97.98
79028;BME280;68427;48.476;19.102;2023-10-19T06:23:03;96729.31;;;3.85;98.16
79028;BME280;68427;48.476;19.102;2023-10-19T06:25:30;96729.16;;;3.86;98.05
79028;BME280;68427;48.476;19.102;2023-10-19T06:27:57;96729.59;;;3.90;97.75
79028;BME280;68427;48.476;19.102;2023-10-19T06:30:23;96725.72;;;3.94;97.64
79028;BME280;68427;48.476;19.102;2023-10-19T06:32:50;96720.84;;;3.91;98.11
79028;BME280;68427;48.476;19.102;2023-10-19T06:35:17;96722.47;;;3.92;98.40
79028;BME280;68427;48.476;19.102;2023-10-19T06:37:44;96721.31;;;3.95;97.69
79028;BME280;68427;48.476;19.102;2023-10-19T06:40:11;96714.81;;;3.99;98.51
79028;BME280;68427;48.476;19.102;2023-10-19T06:42:38;96714.13;;;4.05;98.02
79028;BME280;68427;48.476;19.102;2023-10-19T06:45:05;96707.63;;;4.09;97.94
79028;BME280;68427;48.476;19.102;2023-10-19T06:47:32;96701.31;;;4.11;97.59
79028;BME280;68427;48.476;19.102;2023-10-19T06:50:04;96704.97;;;4.17;98.30
79028;BME280;68427;48.476;19.102;2023-10-19T06:52:30;96700.06;;;4.22;97.75
79028;BME280;68427;48.476;19.102;2023-10-19T06:54:59;96686.59;;;4.27;97.74
79028;BME280;68427;48.476;19.102;2023-10-19T06:57:25;96702.78;;;4.29;98.33
79028;BME280;68427;48.476;19.102;2023-10-19T06:59:50;96703.38;;;4.31;97.79
79028;BME280;68427;48.476;19.102;2023-10-19T07:02:17;96699.47;;;4.35;97.70
79028;BME280;68427;48.476;19.102;2023-10-19T07:04:46;96705.31;;;4.37;97.71
79028;BME280;68427;48.476;19.102;2023-10-19T07:07:12;96694.94;;;4.37;97.56
79028;BME280;68427;48.476;19.102;2023-10-19T07:09:39;96695.22;;;4.42;97.34
79028;BME280;68427;48.476;19.102;2023-10-19T07:12:08;96704.22;;;4.46;97.21
79028;BME280;68427;48.476;19.102;2023-10-19T07:14:33;96689.66;;;4.45;97.79
79028;BME280;68427;48.476;19.102;2023-10-19T07:16:59;96676.53;;;4.47;97.70
79028;BME280;68427;48.476;19.102;2023-10-19T07:19:25;96677.97;;;4.49;97.65
79028;BME280;68427;48.476;19.102;2023-10-19T07:21:51;96679.28;;;4.45;98.54
79028;BME280;68427;48.476;19.102;2023-10-19T07:24:23;96673.59;;;4.50;98.46
79028;BME280;68427;48.476;19.102;2023-10-19T07:26:49;96665.28;;;4.54;98.08
79028;BME280;68427;48.476;19.102;2023-10-19T07:29:34;96667.78;;;4.63;98.11
79028;BME280;68427;48.476;19.102;2023-10-19T07:32:01;96663.03;;;4.66;97.09
79028;BME280;68427;48.476;19.102;2023-10-19T07:34:31;96661.81;;;4.77;96.44
79028;BME280;68427;48.476;19.102;2023-10-19T07:36:58;96665.47;;;4.83;96.16
79028;BME280;68427;48.476;19.102;2023-10-19T07:39:25;96668.50;;;4.86;96.62
79028;BME280;68427;48.476;19.102;2023-10-19T07:41:54;96671.47;;;4.83;96.74
79028;BME280;68427;48.476;19.102;2023-10-19T07:44:20;96660.66;;;4.80;97.48
79028;BME280;68427;48.476;19.102;2023-10-19T07:46:47;96658.13;;;4.86;97.38
79028;BME280;68427;48.476;19.102;2023-10-19T07:49:15;96654.19;;;4.90;96.68
79028;BME280;68427;48.476;19.102;2023-10-19T07:51:45;96655.78;;;4.91;97.20
79028;BME280;68427;48.476;19.102;2023-10-19T07:54:11;96659.03;;;4.93;96.53
79028;BME280;68427;48.476;19.102;2023-10-19T07:56:38;96663.84;;;4.96;96.82
79028;BME280;68427;48.476;19.102;2023-10-19T07:59:04;96649.69;;;4.99;96.46
79028;BME280;68427;48.476;19.102;2023-10-19T08:01:32;96650.78;;;5.05;96.38
79028;BME280;68427;48.476;19.102;2023-10-19T08:03:59;96642.63;;;5.08;96.24
79028;BME280;68427;48.476;19.102;2023-10-19T08:06:25;96632.69;;;5.11;96.92
79028;BME280;68427;48.476;19.102;2023-10-19T08:08:52;96624.47;;;5.08;97.03
79028;BME280;68427;48.476;19.102;2023-10-19T08:11:18;96620.88;;;5.09;97.11
79028;BME280;68427;48.476;19.102;2023-10-19T08:13:44;96618.75;;;5.12;97.66
79028;BME280;68427;48.476;19.102;2023-10-19T08:16:10;96615.94;;;5.14;97.50
79028;BME280;68427;48.476;19.102;2023-10-19T08:18:37;96614.44;;;5.19;97.58
79028;BME280;68427;48.476;19.102;2023-10-19T08:21:04;96614.06;;;5.23;97.79
79028;BME280;68427;48.476;19.102;2023-10-19T08:23:30;96616.13;;;5.27;97.08
79028;BME280;68427;48.476;19.102;2023-10-19T08:25:57;96618.34;;;5.30;97.19
79028;BME280;68427;48.476;19.102;2023-10-19T08:28:23;96619.59;;;5.34;97.33
79028;BME280;68427;48.476;19.102;2023-10-19T08:30:49;96608.38;;;5.34;97.64
79028;BME280;68427;48.476;19.102;2023-10-19T08:33:30;96606.63;;;5.34;97.75
79028;BME280;68427;48.476;19.102;2023-10-19T08:35:59;96597.44;;;5.38;97.47
79028;BME280;68427;48.476;19.102;2023-10-19T08:38:29;96600.28;;;5.44;97.76
79028;BME280;68427;48.476;19.102;2023-10-19T08:40:54;96592.50;;;5.44;97.50
79028;BME280;68427;48.476;19.102;2023-10-19T08:43:20;96590.16;;;5.49;97.85
79028;BME280;68427;48.476;19.102;2023-10-19T08:45:47;96582.19;;;5.50;97.82
79028;BME280;68427;48.476;19.102;2023-10-19T08:48:13;96585.41;;;5.52;97.50
79028;BME280;68427;48.476;19.102;2023-10-19T08:50:39;96574.22;;;5.52;97.63
79028;BME280;68427;48.476;19.102;2023-10-19T08:53:07;96574.66;;;5.55;97.41
79028;BME280;68427;48.476;19.102;2023-10-19T08:55:35;96575.91;;;5.59;97.41
79028;BME280;68427;48.476;19.102;2023-10-19T08:58:01;96579.53;;;5.65;97.26
79028;BME280;68427;48.476;19.102;2023-10-19T09:00:43;96579.41;;;5.73;98.01
79028;BME280;68427;48.476;19.102;2023-10-19T09:03:13;96583.88;;;5.79;97.53
79028;BME280;68427;48.476;19.102;2023-10-19T09:05:39;96585.06;;;5.83;97.18
79028;BME280;68427;48.476;19.102;2023-10-19T09:08:06;96580.31;;;5.87;97.05
79028;BME280;68427;48.476;19.102;2023-10-19T09:10:32;96572.31;;;5.89;97.30
79028;BME280;68427;48.476;19.102;2023-10-19T09:13:01;96576.91;;;5.87;97.00
79028;BME280;68427;48.476;19.102;2023-10-19T09:15:27;96589.47;;;5.83;97.54
79028;BME280;68427;48.476;19.102;2023-10-19T09:17:55;96584.91;;;5.85;97.16
79028;BME280;68427;48.476;19.102;2023-10-19T09:20:21;96566.50;;;5.87;97.08
79028;BME280;68427;48.476;19.102;2023-10-19T09:22:53;96564.13;;;5.85;97.77
79028;BME280;68427;48.476;19.102;2023-10-19T09:25:20;96567.69;;;5.84;97.75
79028;BME280;68427;48.476;19.102;2023-10-19T09:27:47;96573.72;;;5.84;97.89
79028;BME280;68427;48.476;19.102;2023-10-19T09:30:15;96570.09;;;5.85;98.40
79028;BME280;68427;48.476;19.102;2023-10-19T09:32:46;96567.34;;;5.87;98.32
79028;BME280;68427;48.476;19.102;2023-10-19T09:35:13;96568.56;;;5.91;98.36
79028;BME280;68427;48.476;19.102;2023-10-19T09:37:41;96566.56;;;5.93;98.06
79028;BME280;68427;48.476;19.102;2023-10-19T09:40:08;96562.81;;;5.96;98.55
79028;BME280;68427;48.476;19.102;2023-10-19T09:42:39;96557.25;;;5.99;98.10
79028;BME280;68427;48.476;19.102;2023-10-19T09:45:12;96549.44;;;5.99;98.57
79028;BME280;68427;48.476;19.102;2023-10-19T09:47:41;96550.69;;;6.03;98.33
79028;BME280;68427;48.476;19.102;2023-10-19T09:50:11;96549.91;;;6.09;97.96
79028;BME280;68427;48.476;19.102;2023-10-19T09:52:37;96556.97;;;6.15;98.07
79028;BME280;68427;48.476;19.102;2023-10-19T09:55:09;96551.19;;;6.20;97.75
79028;BME280;68427;48.476;19.102;2023-10-19T09:57:42;96545.63;;;6.23;97.13
79028;BME280;68427;48.476;19.102;2023-10-19T10:00:11;96535.63;;;6.26;97.65
79028;BME280;68427;48.476;19.102;2023-10-19T10:02:42;96536.44;;;6.27;97.12
79028;BME280;68427;48.476;19.102;2023-10-19T10:08:31;96528.88;;;6.32;97.85
79028;BME280;68427;48.476;19.102;2023-10-19T10:10:58;96527.66;;;6.28;98.32
79028;BME280;68427;48.476;19.102;2023-10-19T10:13:36;96521.88;;;6.33;98.41
79028;BME280;68427;48.476;19.102;2023-10-19T10:16:02;96530.66;;;6.32;98.88
79028;BME280;68427;48.476;19.102;2023-10-19T10:18:31;96513.69;;;6.36;99.17
79028;BME280;68427;48.476;19.102;2023-10-19T10:21:05;96514.91;;;6.40;98.90
79028;BME280;68427;48.476;19.102;2023-10-19T10:23:40;96514.31;;;6.44;99.22
79028;BME280;68427;48.476;19.102;2023-10-19T10:26:06;96524.13;;;6.42;99.47
79028;BME280;68427;48.476;19.102;2023-10-19T10:28:34;96516.72;;;6.46;99.17
79028;BME280;68427;48.476;19.102;2023-10-19T10:31:08;96506.75;;;6.49;98.75
79028;BME280;68427;48.476;19.102;2023-10-19T10:33:45;96515.38;;;6.57;99.16
79028;BME280;68427;48.476;19.102;2023-10-19T10:36:12;96504.78;;;6.58;98.99
79028;BME280;68427;48.476;19.102;2023-10-19T10:38:39;96500.19;;;6.60;98.87
79028;BME280;68427;48.476;19.102;2023-10-19T10:41:06;96503.19;;;6.64;98.79
79028;BME280;68427;48.476;19.102;2023-10-19T10:43:56;96489.00;;;6.66;98.58
79028;BME280;68427;48.476;19.102;2023-10-19T10:46:23;96493.00;;;6.69;98.69
79028;BME280;68427;48.476;19.102;2023-10-19T10:48:50;96493.81;;;6.69;98.82
79028;BME280;68427;48.476;19.102;2023-10-19T10:51:21;96485.00;;;6.70;98.88
79028;BME280;68427;48.476;19.102;2023-10-19T10:53:48;96482.81;;;6.67;98.84
79028;BME280;68427;48.476;19.102;2023-10-19T10:56:16;96478.00;;;6.71;98.99
79028;BME280;68427;48.476;19.102;2023-10-19T10:58:43;96474.41;;;6.72;99.19
79028;BME280;68427;48.476;19.102;2023-10-19T11:01:08;96462.00;;;6.74;98.46
79028;BME280;68427;48.476;19.102;2023-10-19T11:03:36;96458.00;;;6.78;98.54
79028;BME280;68427;48.476;19.102;2023-10-19T11:06:06;96454.63;;;6.78;99.17
79028;BME280;68427;48.476;19.102;2023-10-19T11:08:36;96452.81;;;6.78;98.70
79028;BME280;68427;48.476;19.102;2023-10-19T11:11:03;96454.63;;;6.78;99.05
79028;BME280;68427;48.476;19.102;2023-10-19T11:13:30;96447.22;;;6.81;99.46
79028;BME280;68427;48.476;19.102;2023-10-19T11:15:58;96439.63;;;6.80;99.66
79028;BME280;68427;48.476;19.102;2023-10-19T11:18:30;96438.59;;;6.81;99.28
79028;BME280;68427;48.476;19.102;2023-10-19T11:20:58;96426.19;;;6.76;99.01
79028;BME280;68427;48.476;19.102;2023-10-19T11:23:36;96430.00;;;6.80;98.58
79028;BME280;68427;48.476;19.102;2023-10-19T11:26:02;96423.38;;;6.84;98.42
79028;BME280;68427;48.476;19.102;2023-10-19T11:28:29;96418.59;;;6.88;98.67
79028;BME280;68427;48.476;19.102;2023-10-19T11:31:10;96428.22;;;6.94;98.41
79028;BME280;68427;48.476;19.102;2023-10-19T11:33:37;96422.81;;;6.96;97.97
79028;BME280;68427;48.476;19.102;2023-10-19T11:36:04;96422.22;;;7.00;98.22
79028;BME280;68427;48.476;19.102;2023-10-19T11:38:30;96415.03;;;7.02;98.17
79028;BME280;68427;48.476;19.102;2023-10-19T11:40:58;96411.22;;;7.05;97.55
79028;BME280;68427;48.476;19.102;2023-10-19T11:43:24;96408.81;;;7.10;98.31
79028;BME280;68427;48.476;19.102;2023-10-19T11:45:50;96412.22;;;7.10;99.05
79028;BME280;68427;48.476;19.102;2023-10-19T11:48:15;96415.22;;;7.14;98.21
79028;BME280;68427;48.476;19.102;2023-10-19T11:50:41;96414.81;;;7.17;98.29
79028;BME280;68427;48.476;19.102;2023-10-19T11:53:07;96399.78;;;7.19;98.38
79028;BME280;68427;48.476;19.102;2023-10-19T11:55:35;96409.00;;;7.22;98.30
79028;BME280;68427;48.476;19.102;2023-10-19T11:58:02;96397.19;;;7.19;98.20
79028;BME280;68427;48.476;19.102;2023-10-19T12:00:29;96407.00;;;7.24;98.04
79028;BME280;68427;48.476;19.102;2023-10-19T12:03:04;96411.81;;;7.27;98.01
79028;BME280;68427;48.476;19.102;2023-10-19T12:05:29;96402.22;;;7.27;97.40
79028;BME280;68427;48.476;19.102;2023-10-19T12:07:56;96407.00;;;7.30;97.39
79028;BME280;68427;48.476;19.102;2023-10-19T12:10:22;96419.44;;;7.35;97.03
79028;BME280;68427;48.476;19.102;2023-10-19T12:13:02;96420.44;;;7.34;97.67
79028;BME280;68427;48.476;19.102;2023-10-19T12:15:30;96411.41;;;7.36;98.04
79028;BME280;68427;48.476;19.102;2023-10-19T12:17:55;96407.81;;;7.38;97.24
79028;BME280;68427;48.476;19.102;2023-10-19T12:20:21;96413.81;;;7.38;97.75
79028;BME280;68427;48.476;19.102;2023-10-19T12:22:50;96414.81;;;7.37;97.89
79028;BME280;68427;48.476;19.102;2023-10-19T12:25:19;96403.59;;;7.36;97.53
79028;BME280;68427;48.476;19.102;2023-10-19T12:27:45;96403.59;;;7.36;98.69
79028;BME280;68427;48.476;19.102;2023-10-19T12:30:13;96395.78;;;7.36;98.50
79028;BME280;68427;48.476;19.102;2023-10-19T12:32:51;96397.41;;;7.38;98.42
79028;BME280;68427;48.476;19.102;2023-10-19T12:35:18;96384.75;;;7.34;98.58
79028;BME280;68427;48.476;19.102;2023-10-19T12:37:51;96383.56;;;7.37;98.74
79028;BME280;68427;48.476;19.102;2023-10-19T12:40:17;96390.56;;;7.43;99.10
79028;BME280;68427;48.476;19.102;2023-10-19T12:42:53;96387.19;;;7.43;98.19
79028;BME280;68427;48.476;19.102;2023-10-19T12:45:24;96384.56;;;7.43;98.86
79028;BME280;68427;48.476;19.102;2023-10-19T12:47:51;96382.16;;;7.41;99.04
79028;BME280;68427;48.476;19.102;2023-10-19T12:50:21;96382.53;;;7.45;98.33
79028;BME280;68427;48.476;19.102;2023-10-19T12:52:50;96379.94;;;7.45;98.40
79028;BME280;68427;48.476;19.102;2023-10-19T12:55:17;96371.13;;;7.39;99.39
79028;BME280;68427;48.476;19.102;2023-10-19T12:57:43;96375.34;;;7.40;99.61
79028;BME280;68427;48.476;19.102;2023-10-19T13:00:09;96377.53;;;7.43;99.12
79028;BME280;68427;48.476;19.102;2023-10-19T13:03:12;96365.13;;;7.45;98.84
79028;BME280;68427;48.476;19.102;2023-10-19T13:05:42;96360.09;;;7.44;99.15
79028;BME280;68427;48.476;19.102;2023-10-19T13:08:10;96366.53;;;7.41;99.25
79028;BME280;68427;48.476;19.102;2023-10-19T13:10:39;96369.50;;;7.45;99.14